createdAt,value
2018-09-25T00:02:31.956Z,102255.52
2018-09-25T00:05:05.697Z,102262.84
2018-09-25T00:07:39.536Z,102259.58
2018-09-25T00:10:13.263Z,102264.14
2018-09-25T00:12:47.037Z,102262.80
2018-09-25T00:15:20.878Z,102259.54
2018-09-25T00:17:54.702Z,102251.94
2018-09-25T00:20:28.517Z,102248.44
2018-09-25T00:23:02.211Z,102250.84
2018-09-25T00:25:35.936Z,102251.55
2018-09-25T00:28:09.682Z,102264.30
2018-09-25T00:30:43.562Z,102258.66
2018-09-25T00:33:17.410Z,102257.04
2018-09-25T00:35:51.029Z,102257.20
2018-09-25T00:38:24.592Z,102260.84
2018-09-25T00:40:58.356Z,102261.52
2018-09-25T00:43:32.209Z,102255.20
2018-09-25T00:46:05.986Z,102258.47
2018-09-25T00:48:39.557Z,102262.28
2018-09-25T00:51:13.286Z,102268.91
2018-09-25T00:53:47.105Z,102262.22
2018-09-25T00:56:20.715Z,102263.60
2018-09-25T00:58:54.674Z,102266.02
2018-09-25T01:01:28.422Z,102264.85
2018-09-25T01:04:02.206Z,102268.61
2018-09-25T01:06:36.014Z,102267.25
2018-09-25T01:09:11.427Z,102264.23
2018-09-25T01:11:45.076Z,102264.98
2018-09-25T01:14:18.964Z,102258.23
2018-09-25T01:16:53.098Z,102266.80
2018-09-25T01:19:26.875Z,102265.98
2018-09-25T01:22:00.625Z,102266.52
2018-09-25T01:24:34.413Z,102265.95
2018-09-25T01:27:08.022Z,102275.78
2018-09-25T01:29:41.817Z,102268.01
2018-09-25T01:32:15.454Z,102267.97
2018-09-25T01:34:49.212Z,102268.53
2018-09-25T01:37:22.828Z,102274.13
2018-09-25T01:39:56.480Z,102269.58
2018-09-25T01:42:30.010Z,102266.03
2018-09-25T01:45:03.729Z,102264.19
2018-09-25T01:47:37.498Z,102263.20
2018-09-25T01:50:11.320Z,102266.03
2018-09-25T01:52:45.022Z,102269.22
2018-09-25T01:55:18.777Z,102265.95
2018-09-25T01:57:52.960Z,102266.11
2018-09-25T02:00:26.610Z,102271.12
2018-09-25T02:03:00.293Z,102267.99
2018-09-25T02:05:33.930Z,102272.22
2018-09-25T02:08:07.689Z,102280.78
2018-09-25T02:10:41.471Z,102277.36
2018-09-25T02:13:15.230Z,102271.64
2018-09-25T02:15:48.878Z,102280.78
2018-09-25T02:18:22.521Z,102276.59
2018-09-25T02:20:56.305Z,102277.63
2018-09-25T02:23:29.942Z,102277.87
2018-09-25T02:26:03.742Z,102281.66
2018-09-25T02:28:37.507Z,102275.84
2018-09-25T02:31:11.230Z,102284.16
2018-09-25T02:33:44.988Z,102287.91
2018-09-25T02:36:18.787Z,102280.70
2018-09-25T02:38:52.447Z,102286.59
2018-09-25T02:41:26.255Z,102284.55
2018-09-25T02:44:00.062Z,102295.02
2018-09-25T02:46:33.783Z,102287.98
2018-09-25T02:49:07.593Z,102288.17
2018-09-25T02:51:41.196Z,102284.44
2018-09-25T02:54:17.938Z,102288.31
2018-09-25T02:56:51.908Z,102283.77
2018-09-25T02:59:25.546Z,102280.40
2018-09-25T03:01:59.286Z,102280.91
2018-09-25T03:04:33.062Z,102277.26
2018-09-25T03:07:07.149Z,102276.06
2018-09-25T03:09:40.786Z,102278.95
2018-09-25T03:12:14.553Z,102268.02
2018-09-25T03:14:48.318Z,102267.16
2018-09-25T03:17:22.158Z,102264.67
2018-09-25T03:19:55.879Z,102265.83
2018-09-25T03:22:29.599Z,102264.31
2018-09-25T03:25:03.357Z,102264.48
2018-09-25T03:27:37.122Z,102262.47
2018-09-25T03:30:11.850Z,102256.41
2018-09-25T03:32:45.480Z,102252.38
2018-09-25T03:35:19.264Z,102247.17
2018-09-25T03:37:52.866Z,102249.02
2018-09-25T03:40:26.362Z,102249.20
2018-09-25T03:42:59.878Z,102253.73
2018-09-25T03:45:33.710Z,102251.87
2018-09-25T03:48:07.591Z,102251.89
2018-09-25T03:50:41.305Z,102256.24
2018-09-25T03:53:14.984Z,102263.66
2018-09-25T03:55:48.790Z,102262.15
2018-09-25T03:58:22.433Z,102267.19
2018-09-25T04:00:55.945Z,102271.22
2018-09-25T04:03:29.483Z,102269.53
2018-09-25T04:06:03.145Z,102275.73
2018-09-25T04:08:36.721Z,102269.33
2018-09-25T04:11:10.495Z,102272.38
2018-09-25T04:13:44.267Z,102277.08
2018-09-25T04:16:18.086Z,102278.42
2018-09-25T04:18:51.920Z,102283.98
2018-09-25T04:21:25.661Z,102279.41
2018-09-25T04:23:59.335Z,102281.96
2018-09-25T04:26:33.266Z,102278.25
2018-09-25T04:29:06.993Z,102284.97
2018-09-25T04:31:41.276Z,102282.95
2018-09-25T04:34:14.913Z,102284.97
2018-09-25T04:36:48.681Z,102268.80
2018-09-25T04:39:22.463Z,102285.60
2018-09-25T04:41:56.275Z,102278.73
2018-09-25T04:44:33.282Z,102280.89
2018-09-25T04:47:07.284Z,102283.93
2018-09-25T04:49:41.085Z,102282.91
2018-09-25T04:52:14.822Z,102287.25
2018-09-25T04:54:48.505Z,102280.39
2018-09-25T04:57:22.309Z,102282.55
2018-09-25T04:59:56.133Z,102280.84
2018-09-25T05:02:29.937Z,102286.52
2018-09-25T05:05:03.469Z,102287.19
2018-09-25T05:07:37.208Z,102293.91
2018-09-25T05:10:10.873Z,102286.88
2018-09-25T05:12:44.675Z,102295.55
2018-09-25T05:15:18.308Z,102298.28
2018-09-25T05:17:52.086Z,102301.30
2018-09-25T05:20:25.886Z,102305.14
2018-09-25T05:22:59.650Z,102307.34
2018-09-25T05:25:33.173Z,102311.05
2018-09-25T05:28:06.653Z,102314.40
2018-09-25T05:30:40.437Z,102318.38
2018-09-25T05:33:14.192Z,102322.23
2018-09-25T05:35:47.915Z,102314.40
2018-09-25T05:38:21.521Z,102321.13
2018-09-25T05:40:55.288Z,102323.45
2018-09-25T05:43:28.942Z,102324.48
2018-09-25T05:46:02.708Z,102322.98
2018-09-25T05:48:36.614Z,102318.16
2018-09-25T05:51:10.390Z,102326.10
2018-09-25T05:53:44.162Z,102332.16
2018-09-25T05:56:17.848Z,102333.69
2018-09-25T05:58:51.623Z,102342.92
2018-09-25T06:01:25.437Z,102349.69
2018-09-25T06:03:59.267Z,102344.14
2018-09-25T06:06:33.821Z,102348.21
2018-09-25T06:09:07.517Z,102344.50
2018-09-25T06:11:41.120Z,102339.33
2018-09-25T06:14:14.991Z,102338.16
2018-09-25T06:16:48.622Z,102335.13
2018-09-25T06:19:22.142Z,102341.87
2018-09-25T06:21:55.914Z,102348.98
2018-09-25T06:24:29.717Z,102350.83
2018-09-25T06:27:03.461Z,102352.00
2018-09-25T06:29:37.085Z,102359.72
2018-09-25T06:32:10.913Z,102362.25
2018-09-25T06:34:44.744Z,102368.44
2018-09-25T06:37:18.495Z,102369.13
2018-09-25T06:39:52.201Z,102366.56
2018-09-25T06:42:26.013Z,102368.71
2018-09-25T06:44:59.728Z,102372.36
2018-09-25T06:47:33.390Z,102373.45
2018-09-25T06:50:07.447Z,102368.70
2018-09-25T06:52:41.381Z,102369.17
2018-09-25T06:55:15.214Z,102381.31
2018-09-25T06:57:48.839Z,102376.91
2018-09-25T07:00:22.486Z,102380.84
2018-09-25T07:02:56.278Z,102382.75
2018-09-25T07:05:29.994Z,102381.82
2018-09-25T07:08:03.797Z,102380.90
2018-09-25T07:10:37.572Z,102389.31
2018-09-25T07:13:11.496Z,102387.14
2018-09-25T07:15:45.080Z,102389.50
2018-09-25T07:18:18.766Z,102400.56
2018-09-25T07:20:52.490Z,102403.22
2018-09-25T07:23:26.026Z,102410.83
2018-09-25T07:25:59.633Z,102417.08
2018-09-25T07:28:33.419Z,102415.53
2018-09-25T07:31:07.179Z,102423.98
2018-09-25T07:33:40.840Z,102427.03
2018-09-25T07:36:14.413Z,102428.36
2018-09-25T07:38:48.175Z,102433.16
2018-09-25T07:41:21.737Z,102438.73
2018-09-25T07:43:55.234Z,102439.13
2018-09-25T07:46:28.928Z,102443.99
2018-09-25T07:49:02.576Z,102446.64
2018-09-25T07:51:36.161Z,102446.34
2018-09-25T07:54:10.717Z,102445.60
2018-09-25T07:56:44.697Z,102456.31
2018-09-25T07:59:18.521Z,102452.00
2018-09-25T08:01:52.101Z,102458.59
2018-09-25T08:04:25.761Z,102455.88
2018-09-25T08:07:00.518Z,102455.05
2018-09-25T08:09:34.157Z,102459.48
2018-09-25T08:12:07.781Z,102468.57
2018-09-25T08:14:41.552Z,102460.25
2018-09-25T08:17:15.325Z,102463.09
2018-09-25T08:19:54.958Z,102471.13
2018-09-25T08:22:28.779Z,102471.17
2018-09-25T08:25:02.349Z,102470.36
2018-09-25T08:27:35.967Z,102474.72
2018-09-25T08:30:09.845Z,102467.27
2018-09-25T08:32:45.072Z,102474.44
2018-09-25T08:35:18.986Z,102477.58
2018-09-25T08:37:52.818Z,102479.70
2018-09-25T08:40:27.127Z,102477.03
2018-09-25T08:43:01.214Z,102485.55
2018-09-25T08:46:29.609Z,102491.95
2018-09-25T08:49:03.926Z,102486.19
2018-09-25T08:51:37.731Z,102485.34
2018-09-25T08:54:11.246Z,102498.03
2018-09-25T08:56:45.047Z,102492.05
2018-09-25T08:59:18.854Z,102497.00
2018-09-25T09:01:52.362Z,102491.19
2018-09-25T09:04:26.189Z,102492.72
2018-09-25T09:07:00.019Z,102497.64
2018-09-25T09:09:33.662Z,102495.95
2018-09-25T09:12:07.482Z,102499.42
2018-09-25T09:14:41.222Z,102505.86
2018-09-25T09:17:15.005Z,102505.89
2018-09-25T09:19:48.698Z,102501.78
2018-09-25T09:22:22.378Z,102492.61
2018-09-25T09:24:56.026Z,102492.61
2018-09-25T09:27:29.773Z,102491.65
2018-09-25T09:30:03.393Z,102498.25
2018-09-25T09:32:37.012Z,102494.42
2018-09-25T09:35:10.889Z,102493.45
2018-09-25T09:37:44.590Z,102490.97
2018-09-25T09:40:18.353Z,102492.81
2018-09-25T09:42:51.952Z,102495.45
2018-09-25T09:45:25.665Z,102489.30
2018-09-25T09:47:59.399Z,102485.75
2018-09-25T09:50:33.134Z,102485.69
2018-09-25T09:53:06.816Z,102485.91
2018-09-25T09:55:40.543Z,102477.30
2018-09-25T09:58:14.302Z,102477.70
2018-09-25T10:00:48.055Z,102471.67
2018-09-25T10:03:21.782Z,102470.72
2018-09-25T10:05:55.482Z,102479.50
2018-09-25T10:08:29.285Z,102467.37
2018-09-25T10:11:02.991Z,102469.88
2018-09-25T10:13:36.572Z,102474.91
2018-09-25T10:16:10.229Z,102471.67
2018-09-25T10:18:44.105Z,102478.98
2018-09-25T10:21:17.690Z,102474.45
2018-09-25T10:23:51.438Z,102475.16
2018-09-25T10:26:25.058Z,102476.20
2018-09-25T10:28:58.932Z,102472.62
2018-09-25T10:31:32.509Z,102477.38
2018-09-25T10:34:06.236Z,102468.91
2018-09-25T10:36:39.836Z,102470.39
2018-09-25T10:39:14.641Z,102471.22
2018-09-25T10:41:48.421Z,102480.52
2018-09-25T10:44:22.136Z,102471.31
2018-09-25T10:46:55.845Z,102470.16
2018-09-25T10:49:29.593Z,102470.58
2018-09-25T10:52:03.209Z,102475.08
2018-09-25T10:54:36.770Z,102474.80
2018-09-25T10:57:10.525Z,102464.12
2018-09-25T10:59:44.265Z,102463.69
2018-09-25T11:02:17.920Z,102458.33
2018-09-25T11:04:51.478Z,102456.22
2018-09-25T11:07:25.073Z,102451.92
2018-09-25T11:09:58.776Z,102452.77
2018-09-25T11:12:32.465Z,102454.98
2018-09-25T11:15:06.149Z,102456.81
2018-09-25T11:17:39.889Z,102450.93
2018-09-25T11:20:13.701Z,102448.43
2018-09-25T11:22:47.379Z,102455.61
2018-09-25T11:25:21.144Z,102460.22
2018-09-25T11:27:54.738Z,102455.94
2018-09-25T11:30:28.333Z,102466.11
2018-09-25T11:33:02.081Z,102460.97
2018-09-25T11:35:35.578Z,102461.70
2018-09-25T11:38:09.172Z,102463.48
2018-09-25T11:40:42.797Z,102463.78
2018-09-25T11:43:16.526Z,102465.25
2018-09-25T11:45:50.123Z,102463.05
2018-09-25T11:48:23.705Z,102451.29
2018-09-25T11:50:57.377Z,102452.20
2018-09-25T11:53:31.038Z,102448.08
2018-09-25T11:56:04.724Z,102443.90
2018-09-25T11:58:38.518Z,102440.55
2018-09-25T12:01:12.089Z,102435.73
2018-09-25T12:03:45.848Z,102438.31
2018-09-25T12:06:19.686Z,102427.45
2018-09-25T12:08:53.354Z,102431.33
2018-09-25T12:11:27.038Z,102439.09
2018-09-25T12:14:00.816Z,102446.73
2018-09-25T12:16:34.461Z,102447.44
2018-09-25T12:19:08.366Z,102445.22
2018-09-25T12:21:41.999Z,102430.27
2018-09-25T12:24:15.698Z,102429.44
2018-09-25T12:26:49.382Z,102438.98
2018-09-25T12:29:24.101Z,102431.16
2018-09-25T12:31:58.068Z,102440.22
2018-09-25T12:34:31.657Z,102447.03
2018-09-25T12:37:05.460Z,102431.86
2018-09-25T12:39:39.219Z,102430.05
2018-09-25T12:42:13.173Z,102418.77
2018-09-25T12:44:46.903Z,102389.22
2018-09-25T12:47:20.503Z,102417.58
2018-09-25T12:49:54.196Z,102421.79
2018-09-25T12:52:27.733Z,102419.41
2018-09-25T12:55:01.425Z,102414.88
2018-09-25T12:57:35.153Z,102406.48
2018-09-25T13:00:08.889Z,102390.03
2018-09-25T13:02:42.590Z,102388.05
2018-09-25T13:05:16.343Z,102392.53
2018-09-25T13:07:50.180Z,102393.93
2018-09-25T13:10:23.897Z,102400.34
2018-09-25T13:12:57.509Z,102393.66
2018-09-25T13:15:31.291Z,102384.05
2018-09-25T13:18:04.889Z,102383.80
2018-09-25T13:20:38.669Z,102385.87
2018-09-25T13:23:13.217Z,102381.05
2018-09-25T13:25:46.730Z,102372.91
2018-09-25T13:28:20.353Z,102361.73
2018-09-25T13:30:54.169Z,102359.26
2018-09-25T13:33:27.850Z,102350.10
2018-09-25T13:36:01.546Z,102345.44
2018-09-25T13:38:35.327Z,102340.16
2018-09-25T13:41:08.950Z,102346.80
2018-09-25T13:43:42.569Z,102345.48
2018-09-25T13:46:16.325Z,102334.06
2018-09-25T13:48:49.913Z,102324.53
2018-09-25T13:51:23.754Z,102321.53
2018-09-25T13:53:57.601Z,102318.59
2018-09-25T13:56:31.365Z,102315.52
2018-09-25T13:59:05.048Z,102308.82
2018-09-25T14:01:38.822Z,102303.52
2018-09-25T14:04:15.750Z,102312.15
2018-09-25T14:06:49.547Z,102300.66
2018-09-25T14:09:23.365Z,102304.59
2018-09-25T14:11:57.085Z,102299.92
2018-09-25T14:14:30.859Z,102286.56
2018-09-25T14:17:04.572Z,102288.97
2018-09-25T14:19:39.063Z,102281.91
2018-09-25T14:22:27.505Z,102276.39
2018-09-25T14:25:01.436Z,102280.86
2018-09-25T14:27:35.242Z,102269.34
2018-09-25T14:30:09.785Z,102270.30
2018-09-25T14:32:43.606Z,102272.05
2018-09-25T14:35:17.347Z,102269.11
2018-09-25T14:37:51.143Z,102267.45
2018-09-25T14:40:24.934Z,102267.73
2018-09-25T14:42:58.722Z,102271.06
2018-09-25T14:45:32.457Z,102261.41
2018-09-25T14:48:06.210Z,102266.63
2018-09-25T14:50:39.829Z,102266.36
2018-09-25T14:53:13.657Z,102270.80
2018-09-25T14:55:47.259Z,102272.42
2018-09-25T14:58:20.857Z,102272.17
2018-09-25T15:00:54.700Z,102264.70
2018-09-25T15:03:28.409Z,102253.86
2018-09-25T15:06:02.165Z,102249.45
2018-09-25T15:08:35.997Z,102255.98
2018-09-25T15:11:09.611Z,102242.61
2018-09-25T15:13:43.334Z,102240.09
2018-09-25T15:16:17.017Z,102235.68
2018-09-25T15:18:50.794Z,102237.64
2018-09-25T15:21:24.675Z,102227.58
2018-09-25T15:23:58.477Z,102233.11
2018-09-25T15:26:32.198Z,102227.64
2018-09-25T15:29:05.916Z,102229.38
2018-09-25T15:31:39.701Z,102228.14
2018-09-25T15:34:13.656Z,102228.25
2018-09-25T15:36:48.186Z,102221.38
2018-09-25T15:39:22.403Z,102224.93
2018-09-25T15:42:00.960Z,102223.78
2018-09-25T15:44:34.583Z,102230.44
2018-09-25T15:47:08.304Z,102227.75
2018-09-25T15:49:42.203Z,102227.77
2018-09-25T15:52:16.008Z,102228.91
2018-09-25T15:54:49.674Z,102221.22
2018-09-25T15:57:23.318Z,102211.79
2018-09-25T15:59:57.037Z,102215.85
2018-09-25T16:02:30.746Z,102223.63
2018-09-25T16:05:04.477Z,102226.97
2018-09-25T16:07:38.444Z,102223.59
2018-09-25T16:10:12.185Z,102219.89
2018-09-25T16:12:46.041Z,102222.95
2018-09-25T16:15:19.849Z,102211.77
2018-09-25T16:17:53.705Z,102216.56
2018-09-25T16:20:27.319Z,102213.05
2018-09-25T16:23:01.098Z,102205.66
2018-09-25T16:25:34.717Z,102202.53
2018-09-25T16:28:08.467Z,102201.80
2018-09-25T16:30:42.220Z,102199.30
2018-09-25T16:33:16.025Z,102201.79
2018-09-25T16:35:49.757Z,102204.28
2018-09-25T16:38:23.390Z,102201.66
2018-09-25T16:40:57.142Z,102195.20
2018-09-25T16:43:30.988Z,102199.08
2018-09-25T16:46:04.936Z,102209.37
2018-09-25T16:48:38.745Z,102205.69
2018-09-25T16:51:12.478Z,102203.12
2018-09-25T16:53:46.193Z,102210.77
2018-09-25T16:56:19.797Z,102205.29
2018-09-25T16:58:53.525Z,102218.38
2018-09-25T17:01:27.288Z,102216.91
2018-09-25T17:04:01.062Z,102216.94
2018-09-25T17:06:35.688Z,102220.77
2018-09-25T17:09:10.522Z,102220.37
2018-09-25T17:11:44.305Z,102219.68
2018-09-25T17:14:19.077Z,102222.36
2018-09-25T17:16:52.846Z,102219.16
2018-09-25T17:19:26.505Z,102217.98
2018-09-25T17:22:00.262Z,102220.31
2018-09-25T17:24:39.440Z,102220.52
2018-09-25T17:27:13.237Z,102220.54
2018-09-25T17:29:47.042Z,102224.73
2018-09-25T17:32:20.682Z,102217.27
2018-09-25T17:34:54.241Z,102220.75
2018-09-25T17:37:28.054Z,102222.55
2018-09-25T17:40:01.935Z,102224.77
2018-09-25T17:42:35.654Z,102220.70
2018-09-25T17:45:09.533Z,102229.59
2018-09-25T17:47:43.163Z,102232.40
2018-09-25T17:50:16.906Z,102235.83
2018-09-25T17:52:51.681Z,102236.97
2018-09-25T17:55:25.257Z,102236.34
2018-09-25T17:57:58.966Z,102240.74
2018-09-25T18:00:32.763Z,102247.64
2018-09-25T18:03:06.865Z,102240.28
2018-09-25T18:05:40.806Z,102245.41
2018-09-25T18:08:14.734Z,102249.36
2018-09-25T18:10:48.709Z,102257.03
2018-09-25T18:13:23.621Z,102261.60
2018-09-25T18:15:57.403Z,102253.41
2018-09-25T18:18:31.261Z,102256.20
2018-09-25T18:21:06.300Z,102256.08
2018-09-25T18:23:40.297Z,102259.28
2018-09-25T18:26:14.349Z,102255.93
2018-09-25T18:28:48.050Z,102255.93
2018-09-25T18:31:21.726Z,102248.28
2018-09-25T18:33:55.489Z,102249.51
2018-09-25T18:36:30.420Z,102257.86
2018-09-25T18:39:04.294Z,102252.66
2018-09-25T18:41:38.917Z,102255.86
2018-09-25T18:44:12.962Z,102254.92
2018-09-25T18:46:47.992Z,102261.70
2018-09-25T18:49:23.323Z,102267.80
2018-09-25T18:51:57.223Z,102267.31
2018-09-25T18:54:31.090Z,102268.03
2018-09-25T18:57:06.014Z,102271.33
2018-09-25T18:59:43.283Z,102276.70
2018-09-25T19:02:17.932Z,102272.08
2018-09-25T19:04:51.797Z,102283.35
2018-09-25T19:07:25.427Z,102273.31
2018-09-25T19:09:59.457Z,102271.36
2018-09-25T19:12:33.135Z,102277.30
2018-09-25T19:15:07.025Z,102273.31
2018-09-25T19:17:40.781Z,102275.63
2018-09-25T19:20:21.231Z,102286.04
2018-09-25T19:22:55.594Z,102277.86
2018-09-25T19:25:29.494Z,102272.05
2018-09-25T19:28:03.246Z,102274.91
2018-09-25T19:30:36.877Z,102272.70
2018-09-25T19:33:10.467Z,102275.73
2018-09-25T19:35:44.251Z,102282.70
2018-09-25T19:38:18.152Z,102272.11
2018-09-25T19:40:51.875Z,102266.27
2018-09-25T19:43:25.768Z,102270.63
2018-09-25T19:45:59.550Z,102275.02
2018-09-25T19:48:33.166Z,102280.58
2018-09-25T19:51:06.821Z,102276.55
2018-09-25T19:53:47.677Z,102266.27
2018-09-25T19:56:21.540Z,102274.69
2018-09-25T19:58:55.442Z,102283.19
2018-09-25T20:01:29.341Z,102270.63
2018-09-25T20:04:03.293Z,102270.22
2018-09-25T20:06:37.151Z,102265.16
2018-09-25T20:09:13.225Z,102274.19
2018-09-25T20:11:47.061Z,102264.03
2018-09-25T20:14:21.098Z,102263.06
2018-09-25T20:16:54.737Z,102259.68
2018-09-25T20:19:32.256Z,102258.73
2018-09-25T20:22:06.178Z,102252.39
2018-09-25T20:24:40.372Z,102251.23
2018-09-25T20:27:14.503Z,102243.71
2018-09-25T20:29:48.304Z,102238.95
2018-09-25T20:32:22.114Z,102236.44
2018-09-25T20:34:56.066Z,102242.78
2018-09-25T20:37:29.891Z,102240.70
2018-09-25T20:40:03.837Z,102232.22
2018-09-25T20:42:37.857Z,102229.59
2018-09-25T20:45:28.406Z,102224.55
2018-09-25T20:48:02.461Z,102220.85
2018-09-25T20:50:36.157Z,102224.55
2018-09-25T20:53:10.291Z,102228.94
2018-09-25T20:55:43.915Z,102230.41
2018-09-25T20:58:17.682Z,102233.42
2018-09-25T21:00:51.333Z,102243.53
2018-09-25T21:03:24.973Z,102249.66
2018-09-25T21:05:58.629Z,102247.17
2018-09-25T21:08:32.431Z,102240.16
2018-09-25T21:11:06.169Z,102239.23
2018-09-25T21:13:39.881Z,102226.87
2018-09-25T21:16:13.743Z,102219.73
2018-09-25T21:18:47.557Z,102208.22
2018-09-25T21:21:21.312Z,102211.48
2018-09-25T21:23:55.074Z,102208.66
2018-09-25T21:26:28.832Z,102208.83
2018-09-25T21:29:02.513Z,102211.92
2018-09-25T21:31:36.222Z,102205.33
2018-09-25T21:34:09.939Z,102189.77
2018-09-25T21:36:43.472Z,102183.27
2018-09-25T21:39:17.181Z,102180.53
2018-09-25T21:41:50.973Z,102180.28
2018-09-25T21:44:24.609Z,102161.61
2018-09-25T21:46:58.303Z,102153.73
2018-09-25T21:49:31.945Z,102165.78
2018-09-25T21:52:05.451Z,102163.44
2018-09-25T21:54:39.050Z,102161.87
2018-09-25T21:57:13.023Z,102171.83
2018-09-25T21:59:46.418Z,102193.22
2018-09-25T22:02:20.109Z,102198.48
2018-09-25T22:04:53.833Z,102196.88
2018-09-25T22:07:27.924Z,102194.22
2018-09-25T22:10:01.650Z,102193.22
2018-09-25T22:12:35.343Z,102191.58
2018-09-25T22:15:08.950Z,102193.27
2018-09-25T22:17:42.597Z,102188.56
2018-09-25T22:20:16.266Z,102173.73
2018-09-25T22:22:50.081Z,102157.22
2018-09-25T22:25:23.613Z,102144.73
2018-09-25T22:27:57.270Z,102143.39
2018-09-25T22:30:30.990Z,102147.84
2018-09-25T22:33:04.766Z,102147.83
2018-09-25T22:35:38.485Z,102145.39
2018-09-25T22:38:12.274Z,102141.69
2018-09-25T22:40:46.021Z,102138.64
2018-09-25T22:43:19.785Z,102132.70
2018-09-25T22:45:53.351Z,102130.65
2018-09-25T22:48:27.106Z,102125.03
2018-09-25T22:51:00.877Z,102124.44
2018-09-25T22:53:34.620Z,102123.69
2018-09-25T22:56:08.440Z,102115.23
2018-09-25T22:58:42.213Z,102119.28
2018-09-25T23:01:16.073Z,102121.49
2018-09-25T23:03:49.733Z,102119.59
2018-09-25T23:06:23.484Z,102121.78
2018-09-25T23:08:57.202Z,102117.09
2018-09-25T23:11:31.071Z,102103.89
2018-09-25T23:14:04.685Z,102106.44
2018-09-25T23:16:38.397Z,102099.03
2018-09-25T23:19:12.351Z,102104.44
2018-09-25T23:21:46.110Z,102107.69
2018-09-25T23:24:19.826Z,102103.45
2018-09-25T23:26:53.327Z,102103.45
2018-09-25T23:29:27.141Z,102101.25
2018-09-25T23:32:00.577Z,102099.05
2018-09-25T23:34:34.339Z,102089.81
2018-09-25T23:37:07.939Z,102084.37
2018-09-25T23:39:41.189Z,102082.41
2018-09-25T23:42:16.305Z,102071.32
2018-09-25T23:44:50.903Z,102073.33
2018-09-25T23:47:25.821Z,102074.02
2018-09-25T23:50:03.373Z,102079.88
2018-09-25T23:52:36.395Z,102081.77
2018-09-25T23:55:13.357Z,102078.06
2018-09-25T23:57:52.932Z,102082.16
